Flight Track Log - Related Links

Times and Time Zones

All times are in EDT time to prevent confusion due to time zone crossing. See the ASQ5685 flight status page for this flight to view local times or setup timezone preferences in your user account.

Time Position Orientation Groundspeed Altitude Reporting Facility
EDT Latitude Longitude Course Direction KTS MPH feet Rate Location/Type
Sat 09:28:17 AM 33.6333 -84.4667 48° Northeast 176 203 2,000  Level Atlanta TRACON
Sat 09:29:17 AM 33.6167 -84.5333 253° West 229 264 3,200 1,600 Climbing Atlanta TRACON
Sat 09:30:17 AM 33.5667 -84.5833 220° Southwest 270 311 5,200 2,050 Climbing Atlanta TRACON
Sat 09:31:00 AM 33.7538 -83.9715 54° Northeast  Level FlightAware Approximate
Sat 09:31:17 AM 33.4833 -84.5833 180° South 280 322 7,300  Level Atlanta TRACON
Sat 09:32:00 AM 33.8114 -83.8757 54° Northeast  Level FlightAware Approximate
Sat 09:32:43 AM 33.4553 -84.4719 107° East 285 328 10,000  Level Atlanta Center
Sat 09:33:00 AM 33.8692 -83.7800 48° Northeast  Level FlightAware Approximate
Sat 09:33:43 AM 33.4556 -84.3725 90° East 287 330 11,600  Level Atlanta Center
Sat 09:34:43 AM 33.4664 -84.2681 83° East 306 352 12,700 1,050 Climbing Atlanta Center
Sat 09:35:43 AM 33.5333 -84.1883 45° Northeast 311 358 13,700 1,000 Climbing Atlanta Center
Sat 09:36:43 AM 33.6022 -84.1061 45° Northeast 336 387 14,700 1,000 Climbing Atlanta Center
Sat 09:37:43 AM 33.6753 -84.0164 46° Northeast 360 414 15,700 1,000 Climbing Atlanta Center
Sat 09:38:43 AM 33.7503 -83.9289 44° Northeast 367 422 16,700 1,000 Climbing Atlanta Center
Sat 09:39:43 AM 33.8336 -83.8311 44° Northeast 367 422 17,700 950 Climbing Atlanta Center
Sat 09:40:43 AM 33.9086 -83.7408 45° Northeast 372 428 18,600 1,000 Climbing Atlanta Center
Sat 09:41:43 AM 33.9753 -83.6456 50° Northeast 380 437 19,700 1,050 Climbing Atlanta Center
Sat 09:42:43 AM 34.0375 -83.5425 54° Northeast 375 432 20,700 950 Climbing Atlanta Center
Sat 09:43:43 AM 34.1017 -83.4392 53° Northeast 375 432 21,600 800 Climbing Atlanta Center
Sat 09:44:43 AM 34.1658 -83.3383 52° Northeast 375 432 22,300 700 Climbing Atlanta Center
Sat 09:45:43 AM 34.2300 -83.2347 53° Northeast 375 432 23,000 750 Climbing Atlanta Center
Sat 09:46:43 AM 34.2961 -83.1311 52° Northeast 380 437 23,800 650 Climbing Atlanta Center
Sat 09:47:43 AM 34.3578 -83.0247 55° Northeast 387 445 24,300 500 Climbing Atlanta Center
Sat 09:48:43 AM 34.4256 -82.9156 53° Northeast 392 451 24,800 500 Climbing Atlanta Center
Sat 09:49:43 AM 34.4936 -82.8089 52° Northeast 392 451 25,300 500 Climbing Atlanta Center
Sat 09:50:43 AM 34.5553 -82.7147 51° Northeast 392 451 25,800 500 Climbing Atlanta Center
Sat 09:51:43 AM 34.6206 -82.6025 55° Northeast 402 463 26,300 500 Climbing Atlanta Center
Sat 09:52:43 AM 34.6964 -82.4825 52° Northeast 402 463 26,800 500 Climbing Atlanta Center
Sat 09:53:43 AM 34.7639 -82.3725 53° Northeast 402 463 27,300 500 Climbing Atlanta Center
Sat 09:54:43 AM 34.8311 -82.2650 53° Northeast 407 468 27,800 500 Climbing Atlanta Center
Sat 09:55:43 AM 34.8964 -82.1522 55° Northeast 407 468 28,300 500 Climbing Atlanta Center
Sat 09:56:43 AM 34.9575 -82.0569 52° Northeast 407 468 28,800 350 Climbing Atlanta Center
Sat 09:57:43 AM 35.0244 -81.9464 53° Northeast 407 468 29,000 100 Climbing Atlanta Center
Sat 09:58:43 AM 35.0869 -81.8281 57° Northeast 412 474 29,000  Level Atlanta Center
Sat 09:59:43 AM 35.1475 -81.7119 57° Northeast 407 468 29,000  Level Atlanta Center
Sat 10:00:43 AM 35.2097 -81.5933 57° Northeast 407 468 29,000  Level Atlanta Center
Sat 10:01:43 AM 35.2781 -81.4642 57° Northeast 407 468 29,000  Level Atlanta Center
Sat 10:02:43 AM 35.3403 -81.3450 57° Northeast 412 474 29,000  Level Atlanta Center
Sat 10:03:43 AM 35.4022 -81.2258 57° Northeast 412 474 29,000  Level Atlanta Center
Sat 10:04:43 AM 35.4642 -81.1039 58° Northeast 417 480 29,000  Level Atlanta Center
Sat 10:05:43 AM 35.5281 -80.9842 57° Northeast 423 487 29,000  Level Atlanta Center
Sat 10:06:43 AM 35.5936 -80.8592 57° Northeast 423 487 29,000  Level Atlanta Center
Sat 10:07:43 AM 35.6569 -80.7342 58° Northeast 423 487 29,000  Level Atlanta Center
Sat 10:08:43 AM 35.7225 -80.6086 57° Northeast 423 487 29,000  Level Atlanta Center
Sat 10:09:43 AM 35.7878 -80.4831 57° Northeast 423 487 29,000  Level Atlanta Center
Sat 10:10:43 AM 35.8528 -80.3547 58° Northeast 423 487 29,000  Level Atlanta Center
Sat 10:11:43 AM 35.9097 -80.2417 58° Northeast 428 493 29,000  Level Atlanta Center
Sat 10:13:49 AM 36.0464 -79.9797 57° Northeast 434 499 29,000  Level Washington Center
Sat 10:14:49 AM 36.1156 -79.8525 56° Northeast 434 499 29,000  Level Washington Center
Sat 10:15:50 AM 36.1956 -79.7153 54° Northeast 444 511 29,000  Level Washington Center
Sat 10:16:48 AM 36.2644 -79.5900 56° Northeast 444 511 29,000  Level Washington Center
Sat 10:17:49 AM 36.3375 -79.4650 54° Northeast 444 511 29,000  Level Washington Center
Sat 10:18:49 AM 36.4064 -79.3342 57° Northeast 439 505 29,000  Level Washington Center
Sat 10:19:50 AM 36.4769 -79.2083 55° Northeast 444 511 29,000 -99 Level Washington Center
Sat 10:20:50 AM 36.5450 -79.0978 53° Northeast 444 511 28,800 -923 Descending Washington Center
Sat 10:21:47 AM 36.6178 -78.9614 56° Northeast 444 511 27,200 -1,678 Descending Washington Center
Sat 10:22:48 AM 36.6925 -78.8219 56° Northeast 463 533 25,500 -1,091 Descending Washington Center
Sat 10:23:48 AM 36.7669 -78.6878 55° Northeast 473 544 25,000 -248 Descending Washington Center
Sat 10:24:49 AM 36.8558 -78.5589 49° Northeast 465 535 25,000  Level Washington Center
Sat 10:25:50 AM 36.9581 -78.4744 33° Northeast 439 505 25,000 -504 Level Washington Center
Sat 10:26:48 AM 37.0622 -78.3872 34° Northeast 439 505 24,000 -966 Descending Washington Center
Sat 10:27:48 AM 37.1708 -78.3000 33° Northeast 455 524 23,100 -942 Descending Washington Center
Sat 10:28:49 AM 37.2706 -78.2175 33° Northeast 470 541 22,100 -1,033 Descending Washington Center
Sat 10:29:50 AM 37.3853 -78.1194 34° Northeast 464 534 21,000 -555 Descending Washington Center
Sat 10:30:48 AM 37.4894 -78.0339 33° Northeast 453 521 21,000  Level Washington Center
Sat 10:31:49 AM 37.5869 -77.9506 34° Northeast 441 507 21,000  Level Washington Center
Sat 10:32:50 AM 37.6867 -77.8694 33° Northeast 429 494 21,000 -857 Level Washington Center
Sat 10:33:48 AM 37.7819 -77.7858 35° Northeast 424 488 19,300 -2,136 Descending Washington Center
Sat 10:34:48 AM 37.8753 -77.7069 34° Northeast 414 476 16,800 -2,479 Descending Washington Center
Sat 10:35:49 AM 37.9619 -77.6356 33° Northeast 389 448 14,300 -2,430 Descending Washington Center
Sat 10:36:49 AM 38.0444 -77.5667 33° Northeast 375 432 11,900 -2,118 Descending Washington Center
Sat 10:37:48 AM 38.1206 -77.5000 35° Northeast 349 402 10,100 -958 Descending Washington Center
Sat 10:38:48 AM 38.1925 -77.4411 33° Northeast 324 373 10,000 -347 Descending Washington Center
Sat 10:39:49 AM 38.2681 -77.3953 25° Northeast 304 350 9,400 -793 Descending Washington Center
Sat 10:40:49 AM 38.3439 -77.3575 21° North 292 336 8,400 -793 Descending Washington Center
Sat 10:41:50 AM 38.4231 -77.3594 359° North 287 330 7,800 -857 Descending Washington Center
Sat 10:42:48 AM 38.5000 -77.3611 359° North 277 319 6,700 -1,068 Descending Washington Center
Sat 10:43:48 AM 38.5750 -77.3656 357° North 272 313 5,700 -836 Descending Washington Center
Sat 10:44:50 AM 38.6481 -77.3647 North 272 313 5,000 -336 Descending Washington Center
Sat 10:45:53 AM 38.7333 -77.3667 359° North 264 304 5,000 -439 Level Potomac TRACON
Sat 10:46:53 AM 38.8000 -77.3500 11° North 262 302 4,100 -950 Descending Potomac TRACON
Sat 10:47:53 AM 38.8833 -77.3500 360° North 260 299 3,100 -550 Descending Potomac TRACON
Sat 10:48:53 AM 38.9500 -77.3500 360° North 263 303 3,000 -50 Descending Potomac TRACON
Sat 10:49:53 AM 39.0167 -77.3500 360° North 231 266 3,000  Level Potomac TRACON

Login

Don't have an account? Register now (free) for customized features, flight alerts, and more!